Time,TemperatureF,DewpointF,PressureIn,WindDirection,WindDirectionDegrees,WindSpeedMPH,WindSpeedGustMPH,Humidity,HourlyPrecipIn,Conditions,Clouds,dailyrainin,SoftwareType,DateUTC
2013-05-19 00:01:00,69.0,-99.9,30.08,WSW,237,0.0,3.0,-999,0.00,,,0.00,,2013-05-19 07:01:00,
2013-05-19 00:11:00,69.0,-99.9,30.08,WSW,237,0.0,3.0,-999,0.00,,,0.00,,2013-05-19 07:11:00,
2013-05-19 00:22:00,68.0,-99.9,30.08,WSW,253,0.0,0.0,-999,0.00,,,0.00,,2013-05-19 07:22:00,
2013-05-19 00:32:00,68.0,-99.9,30.08,WSW,253,0.0,0.0,-999,0.00,,,0.00,,2013-05-19 07:32:00,
2013-05-19 00:42:00,68.0,-99.9,30.08,WSW,253,0.0,0.0,-999,0.00,,,0.00,,2013-05-19 07:42:00,
2013-05-19 00:52:00,67.0,-99.9,30.08,WSW,253,0.0,3.0,-999,0.00,,,0.00,,2013-05-19 07:52:00,
2013-05-19 01:02:00,67.0,-99.9,30.08,WNW,299,0.0,3.0,-999,0.00,,,0.00,,2013-05-19 08:02:00,
2013-05-19 01:12:00,67.0,-99.9,30.08,WNW,299,0.0,3.0,-999,0.00,,,0.00,,2013-05-19 08:12:00,
2013-05-19 01:22:00,67.0,-99.9,30.08,WNW,299,0.0,0.0,-999,0.00,,,0.00,,2013-05-19 08:22:00,
2013-05-19 01:32:00,67.0,-99.9,30.08,WNW,299,0.0,0.0,-999,0.00,,,0.00,,2013-05-19 08:32:00,
2013-05-19 01:42:00,67.0,-99.9,30.08,WNW,299,0.0,0.0,-999,0.00,,,0.00,,2013-05-19 08:42:00,
2013-05-19 01:52:00,66.0,-99.9,30.08,WNW,299,0.0,3.0,-999,0.00,,,0.00,,2013-05-19 08:52:00,
2013-05-19 02:02:00,65.0,-99.9,30.07,WNW,299,0.0,0.0,-999,0.00,,,0.00,,2013-05-19 09:02:00,
2013-05-19 02:12:00,65.0,-99.9,30.07,WNW,299,0.0,0.0,-999,0.00,,,0.00,,2013-05-19 09:12:00,
2013-05-19 02:21:00,66.0,-99.9,30.07,WNW,299,0.0,0.0,-999,0.00,,,0.00,,2013-05-19 09:21:00,
2013-05-19 02:33:00,65.0,-99.9,30.07,WNW,299,0.0,0.0,-999,0.00,,,0.00,,2013-05-19 09:33:00,
2013-05-19 02:43:00,65.0,-99.9,30.07,WNW,299,0.0,0.0,-999,0.00,,,0.00,,2013-05-19 09:43:00,
2013-05-19 02:53:00,65.0,-99.9,30.07,WNW,299,0.0,0.0,-999,0.00,,,0.00,,2013-05-19 09:53:00,
2013-05-19 03:03:00,66.0,-99.9,30.08,WNW,299,0.0,0.0,-999,0.00,,,0.00,,2013-05-19 10:03:00,
2013-05-19 03:13:00,64.0,-99.9,30.08,WNW,299,0.0,0.0,-999,0.00,,,0.00,,2013-05-19 10:13:00,
2013-05-19 03:23:00,64.0,-99.9,30.08,WNW,299,0.0,0.0,-999,0.00,,,0.00,,2013-05-19 10:23:00,
2013-05-19 03:33:00,65.0,-99.9,30.08,WNW,299,0.0,0.0,-999,0.00,,,0.00,,2013-05-19 10:33:00,
2013-05-19 03:42:00,65.0,-99.9,30.08,WNW,299,0.0,0.0,-999,0.00,,,0.00,,2013-05-19 10:42:00,
2013-05-19 03:53:00,65.0,-99.9,30.08,WNW,299,0.0,0.0,-999,0.00,,,0.00,,2013-05-19 10:53:00,
2013-05-19 04:02:00,63.0,-99.9,30.08,SW,216,1.0,4.0,-999,0.00,,,0.00,,2013-05-19 11:02:00,
2013-05-19 04:12:00,63.0,-99.9,30.08,SW,216,1.0,4.0,-999,0.00,,,0.00,,2013-05-19 11:12:00,
2013-05-19 04:22:00,63.0,-99.9,30.08,SW,216,0.0,0.0,-999,0.00,,,0.00,,2013-05-19 11:22:00,
2013-05-19 04:32:00,61.0,-99.9,30.08,SW,216,0.0,0.0,-999,0.00,,,0.00,,2013-05-19 11:32:00,
2013-05-19 04:42:00,61.0,-99.9,30.08,SW,216,0.0,0.0,-999,0.00,,,0.00,,2013-05-19 11:42:00,
2013-05-19 04:53:00,61.0,-99.9,30.08,SW,216,0.0,0.0,-999,0.00,,,0.00,,2013-05-19 11:53:00,
2013-05-19 05:01:00,60.0,-99.9,30.08,SW,216,0.0,0.0,-999,0.00,,,0.00,,2013-05-19 12:01:00,
2013-05-19 05:12:00,60.0,-99.9,30.08,SW,216,0.0,0.0,-999,0.00,,,0.00,,2013-05-19 12:12:00,
2013-05-19 05:22:00,60.0,-99.9,30.08,SW,216,0.0,0.0,-999,0.00,,,0.00,,2013-05-19 12:22:00,
2013-05-19 05:32:00,60.0,-99.9,30.08,SW,216,0.0,0.0,-999,0.00,,,0.00,,2013-05-19 12:32:00,
2013-05-19 05:42:00,60.0,-99.9,30.08,SW,216,0.0,0.0,-999,0.00,,,0.00,,2013-05-19 12:42:00,
2013-05-19 05:52:00,59.0,-99.9,30.09,SW,216,0.0,0.0,-999,0.00,,,0.00,,2013-05-19 12:52:00,
2013-05-19 06:01:00,58.0,-99.9,30.09,SW,216,0.0,0.0,-999,0.00,,,0.00,,2013-05-19 13:01:00,
2013-05-19 06:11:00,58.0,-99.9,30.09,SW,216,0.0,0.0,-999,0.00,,,0.00,,2013-05-19 13:11:00,
2013-05-19 06:21:00,60.0,-99.9,30.09,SW,216,0.0,0.0,-999,0.00,,,0.00,,2013-05-19 13:21:00,
2013-05-19 06:32:00,60.0,-99.9,30.10,SW,216,0.0,0.0,-999,0.00,,,0.00,,2013-05-19 13:32:00,
2013-05-19 06:42:00,60.0,-99.9,30.10,SW,216,0.0,0.0,-999,0.00,,,0.00,,2013-05-19 13:42:00,
2013-05-19 06:52:00,61.0,-99.9,30.10,SW,216,0.0,0.0,-999,0.00,,,0.00,,2013-05-19 13:52:00,
2013-05-19 07:02:00,61.0,-99.9,30.11,SW,216,0.0,2.0,-999,0.00,,,0.00,,2013-05-19 14:02:00,
2013-05-19 07:11:00,61.0,-99.9,30.11,SW,216,0.0,2.0,-999,0.00,,,0.00,,2013-05-19 14:11:00,
2013-05-19 07:21:00,63.0,-99.9,30.11,South,187,0.0,0.0,-999,0.00,,,0.00,,2013-05-19 14:21:00,
2013-05-19 07:32:00,64.0,-99.9,30.11,SSE,151,0.0,4.0,-999,0.00,,,0.00,,2013-05-19 14:32:00,
2013-05-19 07:42:00,64.0,-99.9,30.11,SSE,151,0.0,4.0,-999,0.00,,,0.00,,2013-05-19 14:42:00,
2013-05-19 07:52:00,65.0,-99.9,30.11,SSE,151,0.0,0.0,-999,0.00,,,0.00,,2013-05-19 14:52:00,
2013-05-19 08:02:00,65.0,-99.9,30.11,SSE,151,0.0,0.0,-999,0.00,,,0.00,,2013-05-19 15:02:00,
2013-05-19 08:12:00,65.0,-99.9,30.11,SSE,151,0.0,0.0,-999,0.00,,,0.00,,2013-05-19 15:12:00,
2013-05-19 08:22:00,68.0,-99.9,30.11,South,188,0.0,0.0,-999,0.00,,,0.00,,2013-05-19 15:22:00,
2013-05-19 08:33:00,68.0,-99.9,30.11,SSE,157,0.0,0.0,-999,0.00,,,0.00,,2013-05-19 15:33:00,
2013-05-19 08:43:00,68.0,-99.9,30.11,SSE,157,0.0,0.0,-999,0.00,,,0.00,,2013-05-19 15:43:00,
2013-05-19 08:53:00,70.0,-99.9,30.11,SSE,157,0.0,0.0,-999,0.00,,,0.00,,2013-05-19 15:53:00,
2013-05-19 09:03:00,71.0,-99.9,30.11,ENE,68,0.0,0.0,-999,0.00,,,0.00,,2013-05-19 16:03:00,
2013-05-19 09:13:00,71.0,-99.9,30.11,ENE,68,0.0,0.0,-999,0.00,,,0.00,,2013-05-19 16:13:00,
2013-05-19 09:23:00,71.0,-99.9,30.11,ENE,68,0.0,0.0,-999,0.00,,,0.00,,2013-05-19 16:23:00,
2013-05-19 09:33:00,72.0,-99.9,30.11,ENE,68,0.0,0.0,-999,0.00,,,0.00,,2013-05-19 16:33:00,
2013-05-19 09:42:00,72.0,-99.9,30.11,ENE,68,0.0,0.0,-999,0.00,,,0.00,,2013-05-19 16:42:00,
2013-05-19 09:53:00,74.0,-99.9,30.10,ENE,68,0.0,0.0,-999,0.00,,,0.00,,2013-05-19 16:53:00,
2013-05-19 10:02:00,76.0,-99.9,30.10,ENE,68,0.0,0.0,-999,0.00,,,0.00,,2013-05-19 17:02:00,
2013-05-19 10:12:00,75.0,-99.9,30.10,NNE,26,0.0,0.0,-999,0.00,,,0.00,,2013-05-19 17:12:00,
2013-05-19 10:22:00,75.0,-99.9,30.10,NNE,26,0.0,0.0,-999,0.00,,,0.00,,2013-05-19 17:22:00,
2013-05-19 10:32:00,78.0,-99.9,30.10,East,99,1.0,0.0,-999,0.00,,,0.00,,2013-05-19 17:32:00,
2013-05-19 10:43:00,78.0,-99.9,30.10,East,99,1.0,0.0,-999,0.00,,,0.00,,2013-05-19 17:43:00,
2013-05-19 10:52:00,79.0,-99.9,30.09,East,87,3.0,8.0,-999,0.00,,,0.00,,2013-05-19 17:52:00,
2013-05-19 11:02:00,79.0,-99.9,30.09,NE,50,0.0,0.0,-999,0.00,,,0.00,,2013-05-19 18:02:00,
2013-05-19 11:12:00,80.0,-99.9,30.08,SSE,157,0.0,0.0,-999,0.00,,,0.00,,2013-05-19 18:12:00,
2013-05-19 11:22:00,80.0,-99.9,30.08,SSE,157,0.0,0.0,-999,0.00,,,0.00,,2013-05-19 18:22:00,
2013-05-19 11:32:00,82.0,-99.9,30.08,East,84,4.0,0.0,-999,0.00,,,0.00,,2013-05-19 18:32:00,
2013-05-19 11:43:00,82.0,-99.9,30.08,East,84,4.0,0.0,-999,0.00,,,0.00,,2013-05-19 18:43:00,
2013-05-19 11:53:00,82.0,-99.9,30.07,East,87,3.0,5.0,-999,0.00,,,0.00,,2013-05-19 18:53:00,
2013-05-19 12:01:00,83.0,-99.9,30.06,ENE,77,0.0,0.0,-999,0.00,,,0.00,,2013-05-19 19:01:00,
2013-05-19 12:11:00,83.0,-99.9,30.06,ENE,77,0.0,0.0,-999,0.00,,,0.00,,2013-05-19 19:11:00,
2013-05-19 12:22:00,81.0,-99.9,30.05,NNW,336,2.0,3.0,-999,0.00,,,0.00,,2013-05-19 19:22:00,
2013-05-19 12:32:00,82.0,-99.9,30.04,WSW,254,0.0,3.0,-999,0.00,,,0.00,,2013-05-19 19:32:00,
2013-05-19 12:42:00,82.0,-99.9,30.04,WSW,254,0.0,3.0,-999,0.00,,,0.00,,2013-05-19 19:42:00,
2013-05-19 12:52:00,82.0,-99.9,30.03,NNW,338,0.0,3.0,-999,0.00,,,0.00,,2013-05-19 19:52:00,
2013-05-19 13:02:00,82.0,-99.9,30.02,WNW,291,0.0,0.0,-999,0.00,,,0.00,,2013-05-19 20:02:00,
2013-05-19 13:11:00,82.0,-99.9,30.02,WNW,291,0.0,0.0,-999,0.00,,,0.00,,2013-05-19 20:11:00,
2013-05-19 13:22:00,83.0,-99.9,30.02,WNW,282,4.0,6.0,-999,0.00,,,0.00,,2013-05-19 20:22:00,
2013-05-19 13:32:00,82.0,-99.9,30.02,WNW,303,2.0,0.0,-999,0.00,,,0.00,,2013-05-19 20:32:00,
2013-05-19 13:42:00,82.0,-99.9,30.02,WNW,303,2.0,0.0,-999,0.00,,,0.00,,2013-05-19 20:42:00,
2013-05-19 13:52:00,84.0,-99.9,30.01,NW,317,1.0,0.0,-999,0.00,,,0.00,,2013-05-19 20:52:00,
2013-05-19 14:02:00,84.0,-99.9,30.01,North,352,4.0,0.0,-999,0.00,,,0.00,,2013-05-19 21:02:00,
2013-05-19 14:11:00,84.0,-99.9,30.01,North,352,4.0,0.0,-999,0.00,,,0.00,,2013-05-19 21:11:00,
2013-05-19 14:22:00,84.0,-99.9,30.00,WNW,288,2.0,3.0,-999,0.00,,,0.00,,2013-05-19 21:22:00,
2013-05-19 14:32:00,84.0,-99.9,30.00,West,272,4.0,5.0,-999,0.00,,,0.00,,2013-05-19 21:32:00,
2013-05-19 14:43:00,84.0,-99.9,30.00,West,272,4.0,5.0,-999,0.00,,,0.00,,2013-05-19 21:43:00,
2013-05-19 14:53:00,84.0,-99.9,30.00,West,277,2.0,0.0,-999,0.00,,,0.00,,2013-05-19 21:53:00,
2013-05-19 15:03:00,83.0,-99.9,29.99,West,274,6.0,6.0,-999,0.00,,,0.00,,2013-05-19 22:03:00,
2013-05-19 15:12:00,83.0,-99.9,29.99,West,274,6.0,6.0,-999,0.00,,,0.00,,2013-05-19 22:12:00,
2013-05-19 15:23:00,85.0,-99.9,29.99,North,358,1.0,5.0,-999,0.00,,,0.00,,2013-05-19 22:23:00,
2013-05-19 15:33:00,84.0,-99.9,29.98,WNW,295,3.0,6.0,-999,0.00,,,0.00,,2013-05-19 22:33:00,
2013-05-19 15:43:00,84.0,-99.9,29.98,WNW,295,3.0,6.0,-999,0.00,,,0.00,,2013-05-19 22:43:00,
2013-05-19 15:53:00,85.0,-99.9,29.98,WNW,300,3.0,5.0,-999,0.00,,,0.00,,2013-05-19 22:53:00,
2013-05-19 16:03:00,86.0,-99.9,29.98,NW,315,5.0,7.0,-999,0.00,,,0.00,,2013-05-19 23:03:00,
2013-05-19 16:12:00,86.0,-99.9,29.98,NW,315,5.0,7.0,-999,0.00,,,0.00,,2013-05-19 23:12:00,
2013-05-19 16:22:00,86.0,-99.9,29.96,West,277,3.0,5.0,-999,0.00,,,0.00,,2013-05-19 23:22:00,
2013-05-19 16:32:00,86.0,-99.9,29.97,WNW,293,4.0,6.0,-999,0.00,,,0.00,,2013-05-19 23:32:00,
2013-05-19 16:42:00,86.0,-99.9,29.96,WNW,300,4.0,4.0,-999,0.00,,,0.00,,2013-05-19 23:42:00,
2013-05-19 16:52:00,86.0,-99.9,29.96,WNW,300,4.0,4.0,-999,0.00,,,0.00,,2013-05-19 23:52:00,
2013-05-19 17:02:00,86.0,-99.9,29.96,West,278,4.0,6.0,-999,0.00,,,0.00,,2013-05-20 00:02:00,
2013-05-19 17:12:00,86.0,-99.9,29.96,West,278,4.0,6.0,-999,0.00,,,0.00,,2013-05-20 00:12:00,
2013-05-19 17:22:00,85.0,-99.9,29.97,WNW,284,1.0,0.0,-999,0.00,,,0.00,,2013-05-20 00:22:00,
2013-05-19 17:32:00,85.0,-99.9,29.96,West,275,5.0,9.0,-999,0.00,,,0.00,,2013-05-20 00:32:00,
2013-05-19 17:42:00,85.0,-99.9,29.96,West,275,5.0,9.0,-999,0.00,,,0.00,,2013-05-20 00:42:00,
2013-05-19 17:52:00,85.0,-99.9,29.96,WNW,284,2.0,0.0,-999,0.00,,,0.00,,2013-05-20 00:52:00,
2013-05-19 18:01:00,86.0,-99.9,29.96,NNW,333,5.0,5.0,-999,0.00,,,0.00,,2013-05-20 01:01:00,
2013-05-19 18:11:00,86.0,-99.9,29.96,NNW,333,5.0,5.0,-999,0.00,,,0.00,,2013-05-20 01:11:00,
2013-05-19 18:22:00,85.0,-99.9,29.96,NW,323,0.0,10.0,-999,0.00,,,0.00,,2013-05-20 01:22:00,
2013-05-19 18:32:00,84.0,-99.9,29.96,NNW,336,1.0,6.0,-999,0.00,,,0.00,,2013-05-20 01:32:00,
2013-05-19 18:42:00,84.0,-99.9,29.96,NNW,336,1.0,6.0,-999,0.00,,,0.00,,2013-05-20 01:42:00,
2013-05-19 18:52:00,83.0,-99.9,29.96,NW,310,0.0,4.0,-999,0.00,,,0.00,,2013-05-20 01:52:00,
2013-05-19 19:02:00,81.0,-99.9,29.96,West,261,6.0,7.0,-999,0.00,,,0.00,,2013-05-20 02:02:00,
2013-05-19 19:12:00,81.0,-99.9,29.96,West,261,6.0,7.0,-999,0.00,,,0.00,,2013-05-20 02:12:00,
2013-05-19 19:22:00,80.0,-99.9,29.98,NNW,333,2.0,6.0,-999,0.00,,,0.00,,2013-05-20 02:22:00,
2013-05-19 19:32:00,79.0,-99.9,29.98,WNW,295,1.0,7.0,-999,0.00,,,0.00,,2013-05-20 02:32:00,
2013-05-19 19:42:00,79.0,-99.9,29.98,WNW,295,1.0,7.0,-999,0.00,,,0.00,,2013-05-20 02:42:00,
2013-05-19 19:52:00,79.0,-99.9,29.98,NNW,341,0.0,1.0,-999,0.00,,,0.00,,2013-05-20 02:52:00,
2013-05-19 20:02:00,78.0,-99.9,29.98,WNW,292,0.0,0.0,-999,0.00,,,0.00,,2013-05-20 03:02:00,
2013-05-19 20:12:00,77.0,-99.9,29.99,WNW,292,0.0,0.0,-999,0.00,,,0.00,,2013-05-20 03:12:00,
2013-05-19 20:22:00,77.0,-99.9,29.99,WNW,292,0.0,0.0,-999,0.00,,,0.00,,2013-05-20 03:22:00,
2013-05-19 20:33:00,76.0,-99.9,30.00,WNW,292,0.0,0.0,-999,0.00,,,0.00,,2013-05-20 03:33:00,
2013-05-19 20:43:00,76.0,-99.9,30.01,WNW,292,0.0,0.0,-999,0.00,,,0.00,,2013-05-20 03:43:00,
2013-05-19 20:53:00,76.0,-99.9,30.01,WNW,292,0.0,0.0,-999,0.00,,,0.00,,2013-05-20 03:53:00,
2013-05-19 21:03:00,75.0,-99.9,30.01,WNW,292,0.0,0.0,-999,0.00,,,0.00,,2013-05-20 04:03:00,
2013-05-19 21:13:00,74.0,-99.9,30.01,WNW,292,0.0,0.0,-999,0.00,,,0.00,,2013-05-20 04:13:00,
2013-05-19 21:23:00,74.0,-99.9,30.01,WNW,292,0.0,0.0,-999,0.00,,,0.00,,2013-05-20 04:23:00,
2013-05-19 21:33:00,74.0,-99.9,30.02,WNW,292,0.0,0.0,-999,0.00,,,0.00,,2013-05-20 04:33:00,
2013-05-19 21:43:00,74.0,-99.9,30.02,WNW,292,0.0,0.0,-999,0.00,,,0.00,,2013-05-20 04:43:00,
2013-05-19 21:53:00,74.0,-99.9,30.02,WNW,292,0.0,0.0,-999,0.00,,,0.00,,2013-05-20 04:53:00,
2013-05-19 22:02:00,74.0,-99.9,30.03,WNW,292,0.0,0.0,-999,0.00,,,0.00,,2013-05-20 05:02:00,
2013-05-19 22:12:00,73.0,-99.9,30.03,WSW,244,0.0,0.0,-999,0.00,,,0.00,,2013-05-20 05:12:00,
2013-05-19 22:22:00,73.0,-99.9,30.03,WSW,244,0.0,0.0,-999,0.00,,,0.00,,2013-05-20 05:22:00,
2013-05-19 22:32:00,72.0,-99.9,30.03,SW,215,0.0,0.0,-999,0.00,,,0.00,,2013-05-20 05:32:00,
2013-05-19 22:42:00,72.0,-99.9,30.03,SW,215,0.0,0.0,-999,0.00,,,0.00,,2013-05-20 05:42:00,
2013-05-19 22:52:00,72.0,-99.9,30.03,SW,215,0.0,0.0,-999,0.00,,,0.00,,2013-05-20 05:52:00,
2013-05-19 23:01:00,73.0,-99.9,30.03,SW,215,0.0,0.0,-999,0.00,,,0.00,,2013-05-20 06:01:00,
2013-05-19 23:11:00,72.0,-99.9,30.03,SW,215,0.0,0.0,-999,0.00,,,0.00,,2013-05-20 06:11:00,
2013-05-19 23:21:00,72.0,-99.9,30.03,SW,215,0.0,0.0,-999,0.00,,,0.00,,2013-05-20 06:21:00,
2013-05-19 23:32:00,71.0,-99.9,30.03,SW,215,0.0,0.0,-999,0.00,,,0.00,,2013-05-20 06:32:00,
2013-05-19 23:42:00,71.0,-99.9,30.03,SW,215,0.0,0.0,-999,0.00,,,0.00,,2013-05-20 06:42:00,
2013-05-19 23:52:00,70.0,-99.9,30.04,SW,215,0.0,0.0,-999,0.00,,,0.00,,2013-05-20 06:52:00,